sensor_id;sensor_type;location;lat;lon;timestamp;P1;durP1;ratioP1;P2;durP2;ratioP2
25984;SDS011;66753;53.848;10.658;2023-02-14T00:04:41;20.37;;;10.00;;
25984;SDS011;66753;53.848;10.658;2023-02-14T00:09:44;19.65;;;9.18;;
25984;SDS011;66753;53.848;10.658;2023-02-14T00:14:44;20.10;;;9.13;;
25984;SDS011;66753;53.848;10.658;2023-02-14T00:20:03;19.08;;;8.45;;
25984;SDS011;66753;53.848;10.658;2023-02-14T00:25:04;17.60;;;8.65;;
25984;SDS011;66753;53.848;10.658;2023-02-14T00:30:06;18.10;;;9.18;;
25984;SDS011;66753;53.848;10.658;2023-02-14T00:35:07;18.35;;;9.40;;
25984;SDS011;66753;53.848;10.658;2023-02-14T00:40:08;19.83;;;9.50;;
25984;SDS011;66753;53.848;10.658;2023-02-14T00:45:09;20.70;;;8.88;;
25984;SDS011;66753;53.848;10.658;2023-02-14T00:50:09;17.93;;;8.70;;
25984;SDS011;66753;53.848;10.658;2023-02-14T00:55:10;20.37;;;9.57;;
25984;SDS011;66753;53.848;10.658;2023-02-14T01:00:11;19.53;;;9.20;;
25984;SDS011;66753;53.848;10.658;2023-02-14T01:05:12;19.02;;;9.18;;
25984;SDS011;66753;53.848;10.658;2023-02-14T01:10:13;20.15;;;8.80;;
25984;SDS011;66753;53.848;10.658;2023-02-14T01:15:13;17.52;;;9.02;;
25984;SDS011;66753;53.848;10.658;2023-02-14T01:20:14;19.50;;;8.67;;
25984;SDS011;66753;53.848;10.658;2023-02-14T01:25:14;18.95;;;9.38;;
25984;SDS011;66753;53.848;10.658;2023-02-14T01:30:15;20.55;;;9.35;;
25984;SDS011;66753;53.848;10.658;2023-02-14T01:35:16;22.10;;;9.90;;
25984;SDS011;66753;53.848;10.658;2023-02-14T01:40:16;21.57;;;10.53;;
25984;SDS011;66753;53.848;10.658;2023-02-14T01:50:23;21.00;;;9.90;;
25984;SDS011;66753;53.848;10.658;2023-02-14T01:55:28;22.73;;;11.13;;
25984;SDS011;66753;53.848;10.658;2023-02-14T02:00:31;22.02;;;10.55;;
25984;SDS011;66753;53.848;10.658;2023-02-14T02:05:51;22.15;;;10.60;;
25984;SDS011;66753;53.848;10.658;2023-02-14T02:10:56;24.25;;;10.77;;
25984;SDS011;66753;53.848;10.658;2023-02-14T02:16:01;23.43;;;11.37;;
25984;SDS011;66753;53.848;10.658;2023-02-14T02:52:19;22.23;;;9.73;;
25984;SDS011;66753;53.848;10.658;2023-02-14T02:57:45;20.75;;;9.52;;
25984;SDS011;66753;53.848;10.658;2023-02-14T03:02:50;18.63;;;10.75;;
25984;SDS011;66753;53.848;10.658;2023-02-14T03:08:12;21.27;;;9.95;;
25984;SDS011;66753;53.848;10.658;2023-02-14T03:34:42;19.58;;;8.80;;
25984;SDS011;66753;53.848;10.658;2023-02-14T03:45:07;22.60;;;10.02;;
25984;SDS011;66753;53.848;10.658;2023-02-14T03:50:13;21.73;;;9.63;;
25984;SDS011;66753;53.848;10.658;2023-02-14T03:55:19;23.13;;;9.77;;
25984;SDS011;66753;53.848;10.658;2023-02-14T04:00:26;22.98;;;10.10;;
25984;SDS011;66753;53.848;10.658;2023-02-14T04:05:29;18.85;;;8.75;;
25984;SDS011;66753;53.848;10.658;2023-02-14T04:10:30;22.70;;;9.45;;
25984;SDS011;66753;53.848;10.658;2023-02-14T04:15:30;23.02;;;11.00;;
25984;SDS011;66753;53.848;10.658;2023-02-14T04:20:31;24.03;;;10.97;;
25984;SDS011;66753;53.848;10.658;2023-02-14T04:25:32;24.20;;;10.65;;
25984;SDS011;66753;53.848;10.658;2023-02-14T04:30:32;22.93;;;10.50;;
25984;SDS011;66753;53.848;10.658;2023-02-14T04:35:33;21.87;;;10.50;;
25984;SDS011;66753;53.848;10.658;2023-02-14T04:40:34;21.05;;;9.27;;
25984;SDS011;66753;53.848;10.658;2023-02-14T04:45:34;22.30;;;9.50;;
25984;SDS011;66753;53.848;10.658;2023-02-14T04:50:35;23.15;;;9.07;;
25984;SDS011;66753;53.848;10.658;2023-02-14T04:55:35;21.57;;;8.87;;
25984;SDS011;66753;53.848;10.658;2023-02-14T05:00:36;26.20;;;10.23;;
25984;SDS011;66753;53.848;10.658;2023-02-14T05:05:36;24.63;;;10.37;;
25984;SDS011;66753;53.848;10.658;2023-02-14T05:10:36;27.63;;;11.33;;
25984;SDS011;66753;53.848;10.658;2023-02-14T05:15:37;23.57;;;10.07;;
25984;SDS011;66753;53.848;10.658;2023-02-14T05:20:37;27.30;;;10.60;;
25984;SDS011;66753;53.848;10.658;2023-02-14T05:25:38;27.70;;;11.17;;
25984;SDS011;66753;53.848;10.658;2023-02-14T05:30:39;26.88;;;10.48;;
25984;SDS011;66753;53.848;10.658;2023-02-14T05:35:40;26.85;;;10.70;;
25984;SDS011;66753;53.848;10.658;2023-02-14T05:40:41;25.83;;;10.73;;
25984;SDS011;66753;53.848;10.658;2023-02-14T05:45:42;27.92;;;11.48;;
25984;SDS011;66753;53.848;10.658;2023-02-14T05:50:42;30.27;;;11.73;;
25984;SDS011;66753;53.848;10.658;2023-02-14T05:55:44;27.52;;;11.60;;
25984;SDS011;66753;53.848;10.658;2023-02-14T06:00:45;27.17;;;11.15;;
25984;SDS011;66753;53.848;10.658;2023-02-14T06:05:46;30.33;;;11.23;;
25984;SDS011;66753;53.848;10.658;2023-02-14T06:10:46;28.07;;;11.70;;
25984;SDS011;66753;53.848;10.658;2023-02-14T06:15:46;27.20;;;11.50;;
25984;SDS011;66753;53.848;10.658;2023-02-14T06:20:47;28.03;;;11.13;;
25984;SDS011;66753;53.848;10.658;2023-02-14T06:25:47;31.07;;;12.17;;
25984;SDS011;66753;53.848;10.658;2023-02-14T06:30:47;27.53;;;10.47;;
25984;SDS011;66753;53.848;10.658;2023-02-14T06:35:48;27.80;;;11.13;;
25984;SDS011;66753;53.848;10.658;2023-02-14T06:40:48;29.70;;;11.73;;
25984;SDS011;66753;53.848;10.658;2023-02-14T06:45:49;29.60;;;10.90;;
25984;SDS011;66753;53.848;10.658;2023-02-14T06:50:49;29.57;;;11.90;;
25984;SDS011;66753;53.848;10.658;2023-02-14T06:55:51;26.30;;;11.43;;
25984;SDS011;66753;53.848;10.658;2023-02-14T07:00:53;27.30;;;11.23;;
25984;SDS011;66753;53.848;10.658;2023-02-14T07:05:54;30.35;;;11.82;;
25984;SDS011;66753;53.848;10.658;2023-02-14T07:10:56;32.15;;;11.30;;
25984;SDS011;66753;53.848;10.658;2023-02-14T07:15:57;28.17;;;11.02;;
25984;SDS011;66753;53.848;10.658;2023-02-14T07:20:57;28.00;;;11.03;;
25984;SDS011;66753;53.848;10.658;2023-02-14T07:25:58;32.10;;;12.03;;
25984;SDS011;66753;53.848;10.658;2023-02-14T07:31:01;33.50;;;12.37;;
25984;SDS011;66753;53.848;10.658;2023-02-14T07:36:06;29.13;;;10.57;;
25984;SDS011;66753;53.848;10.658;2023-02-14T07:41:07;30.52;;;11.80;;
25984;SDS011;66753;53.848;10.658;2023-02-14T07:46:08;29.60;;;10.87;;
25984;SDS011;66753;53.848;10.658;2023-02-14T07:51:08;28.90;;;10.98;;
25984;SDS011;66753;53.848;10.658;2023-02-14T07:56:09;28.23;;;11.57;;
25984;SDS011;66753;53.848;10.658;2023-02-14T08:01:09;28.92;;;10.98;;
25984;SDS011;66753;53.848;10.658;2023-02-14T08:06:10;30.93;;;11.20;;
25984;SDS011;66753;53.848;10.658;2023-02-14T08:11:11;28.00;;;10.95;;
25984;SDS011;66753;53.848;10.658;2023-02-14T08:16:32;31.15;;;11.60;;
25984;SDS011;66753;53.848;10.658;2023-02-14T08:21:33;27.75;;;10.93;;
25984;SDS011;66753;53.848;10.658;2023-02-14T08:26:34;29.50;;;11.27;;
25984;SDS011;66753;53.848;10.658;2023-02-14T08:31:34;28.40;;;10.90;;
25984;SDS011;66753;53.848;10.658;2023-02-14T08:36:35;29.80;;;10.85;;
25984;SDS011;66753;53.848;10.658;2023-02-14T08:41:35;29.33;;;10.77;;
25984;SDS011;66753;53.848;10.658;2023-02-14T08:46:36;29.15;;;10.75;;
25984;SDS011;66753;53.848;10.658;2023-02-14T08:51:36;29.47;;;11.37;;
25984;SDS011;66753;53.848;10.658;2023-02-14T08:56:37;29.43;;;11.27;;
25984;SDS011;66753;53.848;10.658;2023-02-14T09:01:37;33.60;;;12.55;;
25984;SDS011;66753;53.848;10.658;2023-02-14T09:06:38;31.03;;;11.20;;
25984;SDS011;66753;53.848;10.658;2023-02-14T09:11:38;30.40;;;12.77;;
25984;SDS011;66753;53.848;10.658;2023-02-14T09:16:39;31.08;;;11.95;;
25984;SDS011;66753;53.848;10.658;2023-02-14T09:21:39;28.42;;;10.95;;
25984;SDS011;66753;53.848;10.658;2023-02-14T09:26:40;25.23;;;10.40;;
25984;SDS011;66753;53.848;10.658;2023-02-14T09:31:41;24.80;;;10.00;;
25984;SDS011;66753;53.848;10.658;2023-02-14T09:36:41;24.93;;;9.77;;
25984;SDS011;66753;53.848;10.658;2023-02-14T09:47:21;24.50;;;9.75;;
25984;SDS011;66753;53.848;10.658;2023-02-14T09:52:41;22.70;;;10.07;;
25984;SDS011;66753;53.848;10.658;2023-02-14T09:58:02;24.20;;;9.38;;
25984;SDS011;66753;53.848;10.658;2023-02-14T10:03:21;26.38;;;9.95;;
25984;SDS011;66753;53.848;10.658;2023-02-14T10:14:13;25.52;;;10.30;;
25984;SDS011;66753;53.848;10.658;2023-02-14T10:24:30;24.33;;;10.73;;
25984;SDS011;66753;53.848;10.658;2023-02-14T10:29:53;23.92;;;9.13;;
25984;SDS011;66753;53.848;10.658;2023-02-14T10:34:53;24.07;;;9.67;;
25984;SDS011;66753;53.848;10.658;2023-02-14T10:55:52;23.67;;;9.70;;
25984;SDS011;66753;53.848;10.658;2023-02-14T11:01:00;23.25;;;9.57;;
25984;SDS011;66753;53.848;10.658;2023-02-14T11:06:04;23.85;;;10.05;;
25984;SDS011;66753;53.848;10.658;2023-02-14T11:16:36;23.45;;;9.65;;
25984;SDS011;66753;53.848;10.658;2023-02-14T11:21:42;23.42;;;10.10;;
25984;SDS011;66753;53.848;10.658;2023-02-14T11:26:47;19.85;;;9.57;;
25984;SDS011;66753;53.848;10.658;2023-02-14T11:31:51;25.52;;;10.60;;
25984;SDS011;66753;53.848;10.658;2023-02-14T11:36:52;22.90;;;10.30;;
25984;SDS011;66753;53.848;10.658;2023-02-14T11:41:54;22.88;;;9.82;;
25984;SDS011;66753;53.848;10.658;2023-02-14T11:46:56;26.63;;;9.90;;
25984;SDS011;66753;53.848;10.658;2023-02-14T11:52:14;23.25;;;10.38;;
25984;SDS011;66753;53.848;10.658;2023-02-14T12:02:42;20.45;;;8.75;;
25984;SDS011;66753;53.848;10.658;2023-02-14T12:07:45;23.02;;;10.55;;
25984;SDS011;66753;53.848;10.658;2023-02-14T12:12:53;21.58;;;9.55;;
25984;SDS011;66753;53.848;10.658;2023-02-14T12:18:23;23.55;;;9.85;;
25984;SDS011;66753;53.848;10.658;2023-02-14T12:28:44;19.77;;;9.48;;
25984;SDS011;66753;53.848;10.658;2023-02-14T12:33:48;21.13;;;8.95;;
25984;SDS011;66753;53.848;10.658;2023-02-14T13:06:06;22.02;;;9.18;;
25984;SDS011;66753;53.848;10.658;2023-02-14T13:22:18;21.35;;;9.48;;
25984;SDS011;66753;53.848;10.658;2023-02-14T13:27:22;21.42;;;9.27;;
25984;SDS011;66753;53.848;10.658;2023-02-14T13:32:25;22.73;;;9.18;;
25984;SDS011;66753;53.848;10.658;2023-02-14T13:37:29;22.92;;;10.35;;
25984;SDS011;66753;53.848;10.658;2023-02-14T13:47:46;21.05;;;9.20;;
25984;SDS011;66753;53.848;10.658;2023-02-14T13:52:47;21.30;;;9.43;;
25984;SDS011;66753;53.848;10.658;2023-02-14T13:58:01;21.95;;;9.60;;
25984;SDS011;66753;53.848;10.658;2023-02-14T14:18:41;23.40;;;8.95;;
25984;SDS011;66753;53.848;10.658;2023-02-14T14:23:42;20.30;;;9.18;;
25984;SDS011;66753;53.848;10.658;2023-02-14T14:28:44;21.40;;;9.43;;
25984;SDS011;66753;53.848;10.658;2023-02-14T14:33:45;19.83;;;8.82;;
25984;SDS011;66753;53.848;10.658;2023-02-14T14:38:49;19.40;;;9.07;;
25984;SDS011;66753;53.848;10.658;2023-02-14T14:43:51;20.42;;;8.65;;
25984;SDS011;66753;53.848;10.658;2023-02-14T14:48:52;21.05;;;8.98;;
25984;SDS011;66753;53.848;10.658;2023-02-14T14:53:59;22.23;;;9.60;;
25984;SDS011;66753;53.848;10.658;2023-02-14T14:59:16;22.55;;;9.65;;
25984;SDS011;66753;53.848;10.658;2023-02-14T15:04:18;22.40;;;10.18;;
25984;SDS011;66753;53.848;10.658;2023-02-14T15:09:23;23.00;;;10.63;;
25984;SDS011;66753;53.848;10.658;2023-02-14T15:14:33;22.50;;;10.25;;
25984;SDS011;66753;53.848;10.658;2023-02-14T15:19:46;21.83;;;9.40;;
25984;SDS011;66753;53.848;10.658;2023-02-14T15:24:50;21.77;;;9.73;;
25984;SDS011;66753;53.848;10.658;2023-02-14T15:29:52;23.23;;;9.50;;
25984;SDS011;66753;53.848;10.658;2023-02-14T15:34:58;22.63;;;10.90;;
25984;SDS011;66753;53.848;10.658;2023-02-14T15:40:01;24.48;;;10.68;;
25984;SDS011;66753;53.848;10.658;2023-02-14T15:45:15;21.08;;;9.77;;
25984;SDS011;66753;53.848;10.658;2023-02-14T15:50:22;22.30;;;10.90;;
25984;SDS011;66753;53.848;10.658;2023-02-14T15:55:26;26.40;;;10.48;;
25984;SDS011;66753;53.848;10.658;2023-02-14T16:00:27;24.33;;;10.68;;
25984;SDS011;66753;53.848;10.658;2023-02-14T16:05:28;23.58;;;9.93;;
25984;SDS011;66753;53.848;10.658;2023-02-14T16:10:30;23.50;;;9.57;;
25984;SDS011;66753;53.848;10.658;2023-02-14T16:15:32;22.52;;;9.70;;
25984;SDS011;66753;53.848;10.658;2023-02-14T16:25:35;20.37;;;9.43;;
25984;SDS011;66753;53.848;10.658;2023-02-14T16:30:36;24.00;;;10.03;;
25984;SDS011;66753;53.848;10.658;2023-02-14T16:35:37;22.10;;;10.43;;
25984;SDS011;66753;53.848;10.658;2023-02-14T16:40:38;20.92;;;9.85;;
25984;SDS011;66753;53.848;10.658;2023-02-14T16:45:42;24.77;;;10.45;;
25984;SDS011;66753;53.848;10.658;2023-02-14T16:50:43;26.27;;;11.50;;
25984;SDS011;66753;53.848;10.658;2023-02-14T16:55:44;25.83;;;10.52;;
25984;SDS011;66753;53.848;10.658;2023-02-14T17:00:44;26.70;;;11.23;;
25984;SDS011;66753;53.848;10.658;2023-02-14T17:05:45;29.10;;;12.80;;
25984;SDS011;66753;53.848;10.658;2023-02-14T17:10:46;32.90;;;14.30;;
25984;SDS011;66753;53.848;10.658;2023-02-14T17:15:47;27.63;;;12.15;;
25984;SDS011;66753;53.848;10.658;2023-02-14T17:20:48;31.33;;;13.18;;
25984;SDS011;66753;53.848;10.658;2023-02-14T17:25:49;32.80;;;12.27;;
25984;SDS011;66753;53.848;10.658;2023-02-14T17:30:49;34.87;;;13.20;;
25984;SDS011;66753;53.848;10.658;2023-02-14T17:35:50;33.07;;;12.70;;
25984;SDS011;66753;53.848;10.658;2023-02-14T17:40:50;32.30;;;13.50;;
25984;SDS011;66753;53.848;10.658;2023-02-14T17:45:51;30.80;;;12.40;;
25984;SDS011;66753;53.848;10.658;2023-02-14T17:50:51;31.40;;;13.57;;
25984;SDS011;66753;53.848;10.658;2023-02-14T17:55:52;32.47;;;12.93;;
25984;SDS011;66753;53.848;10.658;2023-02-14T18:00:52;33.00;;;14.37;;
25984;SDS011;66753;53.848;10.658;2023-02-14T18:05:55;30.93;;;12.73;;
25984;SDS011;66753;53.848;10.658;2023-02-14T18:10:57;35.63;;;14.07;;
25984;SDS011;66753;53.848;10.658;2023-02-14T18:16:00;39.65;;;16.05;;
25984;SDS011;66753;53.848;10.658;2023-02-14T18:21:02;42.47;;;16.48;;
25984;SDS011;66753;53.848;10.658;2023-02-14T18:26:05;38.45;;;14.93;;
25984;SDS011;66753;53.848;10.658;2023-02-14T18:31:10;38.30;;;14.98;;
25984;SDS011;66753;53.848;10.658;2023-02-14T18:36:16;34.38;;;14.00;;
25984;SDS011;66753;53.848;10.658;2023-02-14T18:41:19;32.88;;;12.98;;
25984;SDS011;66753;53.848;10.658;2023-02-14T18:46:21;31.13;;;12.88;;
25984;SDS011;66753;53.848;10.658;2023-02-14T18:56:25;35.92;;;14.10;;
25984;SDS011;66753;53.848;10.658;2023-02-14T19:01:29;34.88;;;13.68;;
25984;SDS011;66753;53.848;10.658;2023-02-14T19:06:35;34.03;;;13.40;;
25984;SDS011;66753;53.848;10.658;2023-02-14T19:11:36;33.05;;;14.55;;
25984;SDS011;66753;53.848;10.658;2023-02-14T19:16:39;32.80;;;13.18;;
25984;SDS011;66753;53.848;10.658;2023-02-14T19:21:42;32.10;;;13.75;;
25984;SDS011;66753;53.848;10.658;2023-02-14T19:26:43;32.50;;;14.20;;
25984;SDS011;66753;53.848;10.658;2023-02-14T19:31:45;33.30;;;13.95;;
25984;SDS011;66753;53.848;10.658;2023-02-14T19:36:47;30.23;;;12.85;;
25984;SDS011;66753;53.848;10.658;2023-02-14T19:41:50;31.73;;;12.50;;
25984;SDS011;66753;53.848;10.658;2023-02-14T19:46:51;29.77;;;13.15;;
25984;SDS011;66753;53.848;10.658;2023-02-14T19:51:55;27.75;;;12.73;;
25984;SDS011;66753;53.848;10.658;2023-02-14T19:56:55;26.30;;;11.35;;
25984;SDS011;66753;53.848;10.658;2023-02-14T20:01:56;25.38;;;11.48;;
25984;SDS011;66753;53.848;10.658;2023-02-14T20:06:57;30.27;;;12.00;;
25984;SDS011;66753;53.848;10.658;2023-02-14T20:11:59;28.15;;;11.82;;
25984;SDS011;66753;53.848;10.658;2023-02-14T20:17:00;25.98;;;12.82;;
25984;SDS011;66753;53.848;10.658;2023-02-14T20:22:03;24.60;;;11.63;;
25984;SDS011;66753;53.848;10.658;2023-02-14T20:27:04;23.77;;;10.45;;
25984;SDS011;66753;53.848;10.658;2023-02-14T20:32:04;28.35;;;11.00;;
25984;SDS011;66753;53.848;10.658;2023-02-14T20:37:05;23.70;;;10.32;;
25984;SDS011;66753;53.848;10.658;2023-02-14T20:42:05;25.97;;;10.30;;
25984;SDS011;66753;53.848;10.658;2023-02-14T20:47:08;27.02;;;11.55;;
25984;SDS011;66753;53.848;10.658;2023-02-14T20:52:10;24.65;;;10.50;;
25984;SDS011;66753;53.848;10.658;2023-02-14T20:57:10;23.30;;;9.98;;
25984;SDS011;66753;53.848;10.658;2023-02-14T21:02:11;21.10;;;9.33;;
25984;SDS011;66753;53.848;10.658;2023-02-14T21:07:11;22.20;;;9.47;;
25984;SDS011;66753;53.848;10.658;2023-02-14T21:12:11;24.83;;;10.20;;
25984;SDS011;66753;53.848;10.658;2023-02-14T21:17:12;23.50;;;9.82;;
25984;SDS011;66753;53.848;10.658;2023-02-14T21:22:13;22.30;;;9.93;;
25984;SDS011;66753;53.848;10.658;2023-02-14T21:27:14;22.00;;;10.13;;
25984;SDS011;66753;53.848;10.658;2023-02-14T21:32:15;21.33;;;9.20;;
25984;SDS011;66753;53.848;10.658;2023-02-14T21:37:15;23.30;;;9.70;;
25984;SDS011;66753;53.848;10.658;2023-02-14T21:42:15;23.07;;;9.60;;
25984;SDS011;66753;53.848;10.658;2023-02-14T21:47:17;21.70;;;9.20;;
25984;SDS011;66753;53.848;10.658;2023-02-14T21:52:18;22.30;;;9.38;;
25984;SDS011;66753;53.848;10.658;2023-02-14T21:57:18;22.80;;;10.20;;
25984;SDS011;66753;53.848;10.658;2023-02-14T22:02:19;23.93;;;9.17;;
25984;SDS011;66753;53.848;10.658;2023-02-14T22:07:19;24.90;;;9.80;;
25984;SDS011;66753;53.848;10.658;2023-02-14T22:12:19;21.40;;;8.63;;
25984;SDS011;66753;53.848;10.658;2023-02-14T22:17:20;20.70;;;8.07;;
25984;SDS011;66753;53.848;10.658;2023-02-14T22:22:20;21.70;;;9.50;;
25984;SDS011;66753;53.848;10.658;2023-02-14T22:27:21;18.87;;;7.50;;
25984;SDS011;66753;53.848;10.658;2023-02-14T22:32:21;22.35;;;8.77;;
25984;SDS011;66753;53.848;10.658;2023-02-14T22:37:22;22.03;;;9.07;;
25984;SDS011;66753;53.848;10.658;2023-02-14T22:42:25;19.40;;;8.15;;
25984;SDS011;66753;53.848;10.658;2023-02-14T22:47:27;18.48;;;8.75;;
25984;SDS011;66753;53.848;10.658;2023-02-14T22:52:27;22.27;;;9.07;;
25984;SDS011;66753;53.848;10.658;2023-02-14T22:57:29;20.43;;;9.40;;
25984;SDS011;66753;53.848;10.658;2023-02-14T23:02:30;18.52;;;8.10;;
25984;SDS011;66753;53.848;10.658;2023-02-14T23:07:30;22.63;;;9.17;;
25984;SDS011;66753;53.848;10.658;2023-02-14T23:12:32;18.95;;;8.27;;
25984;SDS011;66753;53.848;10.658;2023-02-14T23:17:51;22.40;;;8.23;;
25984;SDS011;66753;53.848;10.658;2023-02-14T23:23:11;20.80;;;8.35;;
25984;SDS011;66753;53.848;10.658;2023-02-14T23:28:12;19.77;;;7.97;;
25984;SDS011;66753;53.848;10.658;2023-02-14T23:33:12;23.80;;;8.00;;
25984;SDS011;66753;53.848;10.658;2023-02-14T23:38:13;18.87;;;8.37;;
25984;SDS011;66753;53.848;10.658;2023-02-14T23:43:13;23.02;;;9.80;;
25984;SDS011;66753;53.848;10.658;2023-02-14T23:48:14;24.03;;;9.27;;
25984;SDS011;66753;53.848;10.658;2023-02-14T23:53:14;21.87;;;8.50;;
25984;SDS011;66753;53.848;10.658;2023-02-14T23:58:15;24.27;;;8.93;;
